This is the latest recevied weather packets stored in our database for station/object K4CRS-13. If no packets are shown the sender has not sent any weather packets the latest 10 day(s).
| Time | Temp. | Humidity | Pressure | Rain* | Wind** | Luminosity | Snow |
|---|---|---|---|---|---|---|---|
| 1788031715 | 32.22° C | 50% | 1053.5 hPa | 0 mm | - | 208 W/m² | - |
| 1788031414 | 32.22° C | 48% | 1053.4 hPa | 0 mm | - | 131 W/m² | - |
| 1788031110 | 33.33° C | 47% | 1053.5 hPa | 0 mm | - | 151 W/m² | - |
| 1788030809 | 33.89° C | 45% | 1053.8 hPa | 0 mm | - | 152 W/m² | - |
| 1788030509 | 35° C | 44% | 1053.6 hPa | 0 mm | - | 765 W/m² | - |
| 1788030204 | 35.56° C | 41% | 1053.9 hPa | 0 mm | - | 757 W/m² | - |
| 1788029903 | 35.56° C | 40% | 1053.9 hPa | 0 mm | - | 790 W/m² | - |
| 1788029599 | 34.44° C | 42% | 1053.6 hPa | 0 mm | - | 819 W/m² | - |
| 1788029294 | 35° C | 38% | 1053.8 hPa | 0 mm | - | 247 W/m² | - |
| 1788028993 | 35.56° C | 38% | 1054.1 hPa | 0 mm | - | 777 W/m² | - |
| 1788028692 | 35° C | 38% | 1054 hPa | 0 mm | - | 736 W/m² | - |
| 1788028387 | 34.44° C | 41% | 1054.2 hPa | 0 mm | - | 790 W/m² | - |
| 1788028083 | 34.44° C | 39% | 1054 hPa | 0 mm | - | 792 W/m² | - |
| 1788027778 | 35° C | 36% | 1054.2 hPa | 0 mm | - | 769 W/m² | - |
| 1788027477 | 35° C | 40% | 1054 hPa | 0 mm | - | 779 W/m² | - |
| 1788027172 | 33.89° C | 43% | 1054.1 hPa | 0 mm | - | 821 W/m² | - |
| 1788026871 | 33.33° C | 41% | 1054.2 hPa | 0 mm | - | 801 W/m² | - |
| 1788026567 | 33.33° C | 40% | 1054.2 hPa | 0 mm | - | 790 W/m² | - |
| 1788026266 | 35° C | 38% | 1054.3 hPa | 0 mm | - | 792 W/m² | - |
| 1788025962 | 33.89° C | 39% | 1054.4 hPa | 0 mm | - | 790 W/m² | - |
| 1788025661 | 32.78° C | 43% | 1054.4 hPa | 0 mm | - | 790 W/m² | - |
| 1788025360 | 32.78° C | 43% | 1054.2 hPa | 0 mm | - | 790 W/m² | - |
| 1788025056 | 34.44° C | 41% | 1054.7 hPa | 0 mm | - | 795 W/m² | - |
| 1788024750 | 34.44° C | 39% | 1054.5 hPa | 0 mm | - | 800 W/m² | - |
| 1788024446 | 33.89° C | 41% | 1054.5 hPa | 0 mm | - | 813 W/m² | - |
* Rain latest hour (hover to see other rain measurements)
** Current wind speed in m/s (hover to see current wind gust speed)